SBSPSBRJ

Guest
Details From SBSP - Sao Paulo Congonhas
To SBRJ - Santos-Dumont
Flight Number -
Tags decoded
Created
Modified
Stats Distance 197 nm / 366 km
Max Altitude 0 ft / 0 m
Waypoints 2
Social Downloads 2
Likes 0
Share

Download

Looking for another format? Having issues loading an existing format? Contact us
Advertisement - Login to hide

Notes

Requested: SBSP SBRJ

Route

SBSP SBRJ

ID Type Via Altitude (ft/m) Position (lat/lon) Dist (leg/tot) Name
O SBSP APT - 0 / 0 -23.62669 / -46.65538 - / 0 nm Sao Paulo Congonhas
O SBRJ APT - 0 / 0 -22.91046 / -43.16313 197 / 197 nm Santos-Dumont

Altitude Profile

Advertisement - Login to hide

Weather


0- 5 10 15 20 25 30 35+ Temperature / °C

Clouds and Precipitation
Forecast for 2020-10-30 00:00 UTC. Updated 2 hours ago

Ground ~20,000 ft ~40,000 ft Winds

SBSP

Details ICAO SBSP (CGH)
Name Congonhas-Sao Paulo
Region Brazil
Timezone America/Sao_Paulo (UTC-3.0)
Stats Elevation 2,631 ft / 802 m (AMSL)
Location -23.626700° -46.655200°
Runways 2
Magnetic Variation 21.653° W

METAR

SBSP 292300Z 14008KT 8000 -RA FEW006 OVC090 20/17 Q1018

Decode

TAF

TAF SBSP 291628Z 2918/3006 15010KT 7000 BKN015TX33/2918Z TN19/3005Z BECMG 2918/2920 BKN011 PROB30 2920/3003 4000 RA BR BKN006 BECMG 3003/3005 6000 RA OVC008 RMK PGO

Decode

Departure Runways

ID Width Length Bearing (true/mag) Surface Threshold Overrun Markings Lighting
17L 148 ft / 45 m 4,920 ft / 1,500 m 147.63° / 169.29° ASPHALT 197 ft / 60 m 0 ft / 0 m APP EDGE THRESHOLD
17R 148 ft / 45 m 6,360 ft / 1,938 m 147.63° / 169.29° ASPHALT 407 ft / 124 m 0 ft / 0 m PREC-APP EDGE THRESHOLD ALSF-I TDZ
35L 148 ft / 45 m 6,360 ft / 1,938 m 327.63° / 349.28° ASPHALT 180 ft / 55 m 0 ft / 0 m PREC-APP EDGE THRESHOLD
35R 148 ft / 45 m 4,920 ft / 1,500 m 327.63° / 349.28° ASPHALT 0 ft / 0 m 0 ft / 0 m APP EDGE THRESHOLD

SBRJ

Details ICAO SBRJ (SDU)
Name Santos Dumont-Rio de Janeiro
Region Brazil
Timezone Unknown
Stats Elevation 10 ft / 3 m (AMSL)
Location -22.910400° -43.163200°
Runways 2
Magnetic Variation 23.070° W

METAR

SBRJ 292300Z 20011KT 9999 FEW009 SCT040 BKN070 26/22 Q1010

Decode

TAF

TAF SBRJ 291500Z 2918/3006 18010KT 8000 NSC TX27/2918Z TN23/3006Z BECMG 2922/2923 21010KT BKN030 BECMG 3003/3005 25005KT SCT015 BKN030 RMK PHD

Decode

Destination Runways

ID Width Length Bearing (true/mag) Surface Threshold Overrun Markings Lighting
02L 98 ft / 30 m 4,105 ft / 1,251 m 356.60° / 19.67° ASPHALT 0 ft / 0 m 0 ft / 0 m PREC-APP EDGE THRESHOLD REIL-OMNI
02R 138 ft / 42 m 4,323 ft / 1,318 m 356.58° / 19.65° ASPHALT 0 ft / 0 m 0 ft / 0 m PREC-APP EDGE THRESHOLD REIL-OMNI
20L 138 ft / 42 m 4,323 ft / 1,318 m 176.58° / 199.65° ASPHALT 0 ft / 0 m 0 ft / 0 m PREC-APP EDGE THRESHOLD REIL-OMNI
20R 98 ft / 30 m 4,105 ft / 1,251 m 176.60° / 199.67° ASPHALT 0 ft / 0 m 0 ft / 0 m PREC-APP EDGE THRESHOLD REIL-OMNI

Popular Alternatives